CYAB

Arctic Bay

Arctic Bay, , Canada
TAF AMD CYAB 182141Z 1821/1903 VRB03KT P6SM FEW030 BKN210 FM182300 VRB03KT P6SM SCT025 BKN050 TEMPO 1823/1903 4SM -SN BKN020 OVC050 PROB30 1902/1903 2SM -SN RMK NXT FCST WILL BE ISSUED AT 191945Z
Issued Valid From Valid To
Jan-18 @ 21:41 UTC
(5 hours ago)
Jan-18 @ 21:00 UTC
(5 hours ago)
Jan-19 @ 03:00 UTC
(in 44 minutes)
Expired Click to View Jan-18 @ 21:00 to Jan-18 @ 23:00
TAF AMD CYAB 182141Z 1821/1903 VRB03KT P6SM FEW030 BKN210
Wind Visibility Clouds
Variable at 3 knots Greater than 6 miles
  • Few at 3,000' AGL
  • Broken at 21,000' AGL
Temporary Jan-18 @ 23:00 to Jan-19 @ 03:00
TEMPO 1823/1903 4SM -SN BKN020 OVC050
Visibility Clouds Conditions
4 miles
  • Broken at 2,000' AGL
  • Overcast at 5,000' AGL
  • Light Snow
From Jan-18 @ 23:00 to Jan-19 @ 03:00
FM182300 VRB03KT P6SM SCT025 BKN050
Wind Visibility Clouds
Variable at 3 knots Greater than 6 miles
  • Scattered at 2,500' AGL
  • Broken at 5,000' AGL
Probable  (Probability 30%) Jan-19 @ 02:00 to Jan-19 @ 03:00
PROB30 1902/1903 2SM -SN RMK NXT FCST WILL BE ISSUED AT 191945Z
Visibility Conditions
2 miles
  • Light Snow
TAF AMD CYAB 182141Z 1821/1903 VRB03KT P6SM FEW030 BKN210 FM182300 VRB03KT P6SM SCT025 BKN050 TEMPO 1823/1903 4SM -SN BKN020 OVC050 PROB30 1902/1903 2SM -SN RMK NXT FCST WILL BE ISSUED AT 191945Z
Issued Jan-18 @ 21:41 UTC
(5 hours ago)
Valid From Jan-18 @ 21:00 UTC
(5 hours ago)
Valid To Jan-19 @ 03:00 UTC
(in 44 minutes)
Jan-18 @ 21:00 - Jan-18 @ 23:00
Wind Visibility
Variable at 3 knots Greater than 6 miles
Clouds
  • Few at 3,000' AGL
  • Broken at 21,000' AGL
Temporary Jan-18 @ 23:00 - Jan-19 @ 03:00
Clouds
  • Broken at 2,000' AGL
  • Overcast at 5,000' AGL
Conditions
  • Light Snow
From Jan-18 @ 23:00 - Jan-19 @ 03:00
Wind Visibility
Variable at 3 knots Greater than 6 miles
Clouds
  • Scattered at 2,500' AGL
  • Broken at 5,000' AGL
Probability 30% Probable Jan-19 @ 02:00 - Jan-19 @ 03:00
Conditions
  • Light Snow